Time;durP1;ratioP1;P1;durP2;ratioP2;P2;SDS_P1;SDS_P2;PMS_P1;PMS_P2;Temp;Humidity;BMP_temperature;BMP_pressure;BME280_temperature;BME280_humidity;BME280_pressure;Samples;Min_cycle;Max_cycle;Signal;HPM_P1;HPM_P2
2023/02/18 00:02:02;;;;;;;;;;;;;;;7.15;88.58;99251.28;5069298;28;19963;-77
2023/02/18 00:04:27;;;;;;;;;;;;;;;7.18;89.26;99258.84;5068587;28;19921;-77
2023/02/18 00:06:52;;;;;;;;;;;;;;;7.17;89.17;99249.22;5064789;28;20362;-77
2023/02/18 00:09:17;;;;;;;;;;;;;;;7.04;89.02;99252.00;5067357;28;19921;-77
2023/02/18 00:11:42;;;;;;;;;;;;;;;7.01;88.78;99257.72;5069976;28;20284;-77
2023/02/18 00:14:10;;;;;;;;;;;;;;;7.08;89.20;99250.53;5070101;28;19921;-77
2023/02/18 00:16:36;;;;;;;;;;;;;;;7.17;88.88;99251.88;5067334;28;19943;-78
2023/02/18 00:19:03;;;;;;;;;;;;;;;7.08;88.88;99250.53;5068381;28;20265;-78
2023/02/18 00:21:29;;;;;;;;;;;;;;;7.19;88.31;99247.16;5069823;28;19998;-76
2023/02/18 00:23:54;;;;;;;;;;;;;;;7.01;87.64;99233.81;5067673;28;20367;-77
2023/02/18 00:26:20;;;;;;;;;;;;;;;7.03;89.79;99237.09;5068961;28;19917;-77
2023/02/18 00:28:47;;;;;;;;;;;;;;;7.03;89.26;99237.09;5068840;28;19920;-77
2023/02/18 00:31:17;;;;;;;;;;;;;;;7.08;89.12;99229.28;5066370;28;19986;-77
2023/02/18 00:33:42;;;;;;;;;;;;;;;7.12;88.22;99233.13;5059370;28;19921;-77
2023/02/18 00:36:09;;;;;;;;;;;;;;;7.13;88.35;99233.94;5068766;28;19927;-79
2023/02/18 00:38:34;;;;;;;;;;;;;;;7.12;89.56;99225.16;5069547;28;19966;-78
2023/02/18 00:41:00;;;;;;;;;;;;;;;7.03;89.12;99234.44;5068379;28;19924;-76
2023/02/18 00:43:25;;;;;;;;;;;;;;;7.04;88.76;99229.94;5067600;28;19947;-78
2023/02/18 00:45:51;;;;;;;;;;;;;;;7.10;89.37;99229.09;5068087;28;20411;-76
2023/02/18 00:48:16;;;;;;;;;;;;;;;7.05;88.42;99228.91;5063415;28;19916;-76
2023/02/18 00:50:42;;;;;;;;;;;;;;;7.06;88.87;99222.56;5067200;28;19924;-76
2023/02/18 00:53:07;;;;;;;;;;;;;;;7.03;88.52;99209.75;5069068;28;19920;-77
2023/02/18 00:55:37;;;;;;;;;;;;;;;7.06;88.70;99212.78;5064300;28;19920;-77
2023/02/18 00:58:02;;;;;;;;;;;;;;;6.97;88.42;99210.63;5061978;28;19935;-77
2023/02/18 01:00:27;;;;;;;;;;;;;;;7.00;89.41;99216.28;5063131;28;20023;-77
2023/02/18 01:02:53;;;;;;;;;;;;;;;6.91;89.44;99217.59;5061867;28;19916;-77
2023/02/18 01:05:19;;;;;;;;;;;;;;;6.96;89.04;99217.75;5061896;28;19928;-77
2023/02/18 01:07:45;;;;;;;;;;;;;;;6.94;88.63;99222.47;5063714;28;19923;-77
2023/02/18 01:10:10;;;;;;;;;;;;;;;6.97;89.68;99223.88;5066412;28;20373;-77
2023/02/18 01:12:35;;;;;;;;;;;;;;;6.97;88.63;99214.06;5062505;28;19921;-77
2023/02/18 01:15:00;;;;;;;;;;;;;;;6.92;89.08;99213.09;5065124;28;19959;-78
2023/02/18 01:17:26;;;;;;;;;;;;;;;6.90;88.71;99207.19;5068630;28;20297;-77
2023/02/18 01:19:52;;;;;;;;;;;;;;;6.91;88.79;99214.94;5067120;28;19932;-77
2023/02/18 01:22:17;;;;;;;;;;;;;;;6.97;89.01;99210.63;5064929;28;20433;-76
2023/02/18 01:24:42;;;;;;;;;;;;;;;6.89;89.07;99213.53;5065647;28;19947;-75
2023/02/18 01:27:08;;;;;;;;;;;;;;;6.94;89.56;99211.84;5067905;28;19920;-77
2023/02/18 01:29:33;;;;;;;;;;;;;;;6.78;89.79;99204.41;5070285;28;19946;-76
2023/02/18 01:31:58;;;;;;;;;;;;;;;6.86;90.06;99211.31;5067447;28;19943;-76
2023/02/18 01:34:23;;;;;;;;;;;;;;;6.86;89.35;99212.09;5058330;28;19924;-76
2023/02/18 01:36:49;;;;;;;;;;;;;;;6.86;89.77;99213.97;5067907;28;19930;-77
2023/02/18 01:39:14;;;;;;;;;;;;;;;6.91;90.45;99222.06;5070612;28;19974;-77
2023/02/18 01:41:39;;;;;;;;;;;;;;;6.89;89.36;99227.59;5068063;28;19967;-77
2023/02/18 01:44:22;;;;;;;;;;;;;;;6.86;90.68;99222.72;5062766;28;20369;-77
2023/02/18 01:46:48;;;;;;;;;;;;;;;6.90;89.76;99226.59;5069076;28;19928;-77
2023/02/18 01:49:16;;;;;;;;;;;;;;;6.78;91.05;99223.81;5073399;28;19924;-76
2023/02/18 01:52:01;;;;;;;;;;;;;;;6.78;90.53;99223.00;5069497;28;19920;-76
2023/02/18 01:54:28;;;;;;;;;;;;;;;6.81;90.57;99212.75;5065061;28;19917;-77
2023/02/18 01:56:55;;;;;;;;;;;;;;;6.82;91.47;99205.63;5068416;28;19927;-77
2023/02/18 01:59:24;;;;;;;;;;;;;;;6.84;91.16;99197.47;5067928;28;19928;-76
2023/02/18 02:01:50;;;;;;;;;;;;;;;6.84;91.17;99205.41;5066627;28;19920;-76
2023/02/18 02:04:15;;;;;;;;;;;;;;;6.87;91.10;99187.22;5068674;28;19927;-76
2023/02/18 02:06:41;;;;;;;;;;;;;;;6.89;91.69;99184.34;5066568;28;19943;-76
2023/02/18 02:09:08;;;;;;;;;;;;;;;6.89;91.20;99197.59;5069574;28;19925;-79
2023/02/18 02:11:33;;;;;;;;;;;;;;;6.95;90.71;99184.28;5068841;28;19920;-78
2023/02/18 02:14:09;;;;;;;;;;;;;;;6.81;91.18;99174.81;5070292;28;20042;-78
2023/02/18 02:16:40;;;;;;;;;;;;;;;6.90;90.91;99176.19;5081100;28;19917;-80
2023/02/18 02:19:25;;;;;;;;;;;;;;;6.84;92.05;99174.38;5068836;28;20846;-80
2023/02/18 02:21:50;;;;;;;;;;;;;;;6.80;92.14;99179.31;5068620;28;19966;-80
2023/02/18 02:24:34;;;;;;;;;;;;;;;6.79;92.44;99171.56;5068485;28;19924;-78
2023/02/18 02:27:11;;;;;;;;;;;;;;;6.82;92.49;99179.91;5069905;28;20021;-77
2023/02/18 02:29:55;;;;;;;;;;;;;;;6.86;91.92;99172.31;5069368;28;19932;-76
2023/02/18 02:32:29;;;;;;;;;;;;;;;6.81;92.07;99174.81;5061506;28;19916;-76
2023/02/18 02:35:08;;;;;;;;;;;;;;;6.90;92.57;99173.53;5062498;28;19917;-76
2023/02/18 02:37:45;;;;;;;;;;;;;;;6.96;91.99;99170.00;5058019;28;20854;-77
2023/02/18 02:40:19;;;;;;;;;;;;;;;6.96;90.91;99166.53;5068684;28;19921;-77
2023/02/18 02:43:03;;;;;;;;;;;;;;;6.98;92.23;99165.28;5066271;28;19963;-77
2023/02/18 02:45:37;;;;;;;;;;;;;;;6.86;92.51;99158.25;5057320;28;20354;-76
2023/02/18 02:48:15;;;;;;;;;;;;;;;6.84;91.72;99153.16;5068860;28;20388;-77
2023/02/18 02:51:06;;;;;;;;;;;;;;;6.91;93.03;99145.13;5067688;28;20026;-77
2023/02/18 02:53:33;;;;;;;;;;;;;;;6.98;92.13;99141.41;5063853;28;19921;-75
2023/02/18 02:55:58;;;;;;;;;;;;;;;7.02;92.15;99147.06;5067270;28;20503;-77
2023/02/18 02:58:23;;;;;;;;;;;;;;;6.95;91.61;99151.63;5071484;28;20023;-77
2023/02/18 03:01:03;;;;;;;;;;;;;;;6.96;92.36;99140.81;5070305;28;20013;-77
2023/02/18 03:03:39;;;;;;;;;;;;;;;6.96;92.55;99140.81;5064804;28;19932;-77
2023/02/18 03:06:16;;;;;;;;;;;;;;;6.97;92.17;99136.31;5065671;28;19946;-77
2023/02/18 03:08:59;;;;;;;;;;;;;;;6.87;92.55;99128.84;5083997;28;20471;-77
2023/02/18 03:11:25;;;;;;;;;;;;;;;6.91;92.28;99137.16;5066306;28;20037;-77
2023/02/18 03:13:59;;;;;;;;;;;;;;;7.00;92.35;99128.72;5068311;28;19927;-77
2023/02/18 03:16:40;;;;;;;;;;;;;;;6.92;92.60;99121.06;5081216;28;19924;-76
2023/02/18 03:19:18;;;;;;;;;;;;;;;6.95;93.38;99125.91;5067394;28;19966;-76
2023/02/18 03:21:43;;;;;;;;;;;;;;;6.91;92.77;99119.41;5066609;28;19925;-77
2023/02/18 03:24:21;;;;;;;;;;;;;;;6.91;92.88;99119.41;5065115;28;19923;-77
2023/02/18 03:26:49;;;;;;;;;;;;;;;6.85;92.85;99122.94;5068799;28;19963;-78
2023/02/18 03:29:17;;;;;;;;;;;;;;;6.87;93.94;99120.06;5069754;28;19916;-76
2023/02/18 03:31:44;;;;;;;;;;;;;;;6.97;93.24;99101.84;5065965;28;20308;-77
2023/02/18 03:34:14;;;;;;;;;;;;;;;6.97;93.42;99101.84;5063673;28;20533;-77
2023/02/18 03:36:40;;;;;;;;;;;;;;;6.94;93.66;99104.91;5061707;28;19917;-77
2023/02/18 03:39:16;;;;;;;;;;;;;;;7.01;92.86;99103.78;5066654;28;19974;-79
2023/02/18 03:41:42;;;;;;;;;;;;;;;7.03;93.18;99085.03;5066475;28;19968;-75
2023/02/18 03:44:08;;;;;;;;;;;;;;;6.99;92.58;99089.94;5065047;28;20416;-76
2023/02/18 03:46:35;;;;;;;;;;;;;;;7.06;93.37;99077.41;5065361;28;21197;-77
2023/02/18 03:49:01;;;;;;;;;;;;;;;7.05;93.14;99078.47;5065984;28;19956;-77
2023/02/18 03:51:26;;;;;;;;;;;;;;;7.07;92.59;99080.91;5067833;28;20061;-80
2023/02/18 03:53:51;;;;;;;;;;;;;;;7.15;92.48;99080.59;5070768;28;20040;-79
2023/02/18 03:56:16;;;;;;;;;;;;;;;7.15;93.30;99075.28;5068995;28;19920;-77
2023/02/18 03:58:42;;;;;;;;;;;;;;;7.14;92.97;99076.34;5070287;28;19929;-78
2023/02/18 04:01:07;;;;;;;;;;;;;;;7.13;92.64;99074.69;5069889;28;19966;-78
2023/02/18 04:03:32;;;;;;;;;;;;;;;7.10;93.32;99067.19;5069129;28;19921;-79
2023/02/18 04:05:58;;;;;;;;;;;;;;;7.06;92.86;99052.72;5068187;28;19920;-77
2023/02/18 04:08:23;;;;;;;;;;;;;;;7.08;92.99;99054.13;5068862;28;19921;-80
2023/02/18 04:10:48;;;;;;;;;;;;;;;7.06;93.51;99044.75;5049753;28;20407;-77
2023/02/18 04:13:16;;;;;;;;;;;;;;;7.02;93.00;99044.41;5068032;28;19959;-75
2023/02/18 04:15:41;;;;;;;;;;;;;;;7.06;93.61;99040.28;5064651;28;20377;-75
2023/02/18 04:18:06;;;;;;;;;;;;;;;7.09;93.58;99042.50;5065513;28;19974;-75
2023/02/18 04:20:32;;;;;;;;;;;;;;;7.00;93.27;99049.13;5066355;28;19928;-77
2023/02/18 04:22:57;;;;;;;;;;;;;;;7.06;94.55;99048.22;5067825;28;19921;-76
2023/02/18 04:25:22;;;;;;;;;;;;;;;7.07;94.36;99041.09;5067702;28;20558;-75
2023/02/18 04:27:47;;;;;;;;;;;;;;;7.11;94.56;99042.25;5066492;28;21449;-77
2023/02/18 04:30:13;;;;;;;;;;;;;;;7.05;94.71;99037.84;5064891;28;20022;-76
2023/02/18 04:32:38;;;;;;;;;;;;;;;6.99;95.82;99041.38;5064218;28;20393;-76
2023/02/18 04:35:04;;;;;;;;;;;;;;;6.99;96.66;99042.19;5063451;28;20396;-76
2023/02/18 04:37:29;;;;;;;;;;;;;;;7.03;96.70;99038.06;5068188;28;20393;-77
2023/02/18 04:39:54;;;;;;;;;;;;;;;7.08;96.75;99032.91;5065174;28;20501;-77
2023/02/18 04:42:20;;;;;;;;;;;;;;;7.15;96.47;99040.78;5067901;28;19935;-77
2023/02/18 04:44:45;;;;;;;;;;;;;;;7.08;96.99;99029.41;5062895;28;20015;-76
2023/02/18 04:47:10;;;;;;;;;;;;;;;7.12;95.92;99031.41;5064546;28;20011;-77
2023/02/18 04:49:35;;;;;;;;;;;;;;;7.12;96.09;99027.97;5066398;28;20389;-78
2023/02/18 04:52:01;;;;;;;;;;;;;;;7.08;96.02;99019.63;5066348;28;20332;-78
2023/02/18 04:54:26;;;;;;;;;;;;;;;7.12;96.27;99015.50;5067788;28;19921;-79
2023/02/18 04:56:51;;;;;;;;;;;;;;;7.16;96.79;99007.91;5066544;28;19999;-79
2023/02/18 04:59:17;;;;;;;;;;;;;;;7.11;96.91;99005.91;5062920;28;19925;-77
2023/02/18 05:01:42;;;;;;;;;;;;;;;7.16;97.56;99003.44;5070274;28;19971;-79
2023/02/18 05:04:07;;;;;;;;;;;;;;;7.15;97.74;99011.59;5067076;28;19959;-77
2023/02/18 05:06:32;;;;;;;;;;;;;;;7.17;97.72;99005.03;5067178;28;19967;-78
2023/02/18 05:08:58;;;;;;;;;;;;;;;7.19;97.89;98997.66;5065459;28;19977;-77
2023/02/18 05:11:23;;;;;;;;;;;;;;;7.18;97.37;98998.69;5067888;28;19970;-79
2023/02/18 05:13:48;;;;;;;;;;;;;;;7.20;97.73;98995.81;5068330;28;19920;-76
2023/02/18 05:16:13;;;;;;;;;;;;;;;7.19;96.79;98994.19;5078368;28;19981;-76
2023/02/18 05:18:38;;;;;;;;;;;;;;;7.23;97.25;98982.91;5065696;28;19930;-79
2023/02/18 05:21:04;;;;;;;;;;;;;;;7.27;97.16;98983.28;5067411;28;19921;-75
2023/02/18 05:23:29;;;;;;;;;;;;;;;7.24;97.87;98979.22;5067742;28;20574;-81
2023/02/18 05:25:54;;;;;;;;;;;;;;;7.27;97.65;98986.72;5072383;28;20004;-77
2023/02/18 05:28:20;;;;;;;;;;;;;;;7.25;97.45;98980.81;5069527;28;19952;-80
2023/02/18 05:30:45;;;;;;;;;;;;;;;7.22;98.48;98969.84;5069952;28;19921;-80
2023/02/18 05:33:11;;;;;;;;;;;;;;;7.25;97.89;98969.41;5059899;28;19920;-80
2023/02/18 05:35:36;;;;;;;;;;;;;;;7.19;98.33;98963.16;5069833;28;19917;-79
2023/02/18 05:38:02;;;;;;;;;;;;;;;7.22;97.96;98956.59;5064909;28;19939;-79
2023/02/18 05:40:27;;;;;;;;;;;;;;;7.20;98.41;98963.97;5069841;28;19956;-79
2023/02/18 05:42:52;;;;;;;;;;;;;;;7.23;98.56;98959.00;5067094;28;19924;-78
2023/02/18 05:45:17;;;;;;;;;;;;;;;7.28;98.85;98950.38;5066498;28;19928;-77
2023/02/18 05:47:43;;;;;;;;;;;;;;;7.31;98.65;98955.25;5060416;28;19924;-80
2023/02/18 05:50:08;;;;;;;;;;;;;;;7.25;98.15;98951.63;5050987;28;20011;-80
2023/02/18 05:52:33;;;;;;;;;;;;;;;7.27;98.76;98941.59;5069008;28;19916;-80
2023/02/18 05:54:59;;;;;;;;;;;;;;;7.32;98.50;98951.53;5081456;28;19921;-77
2023/02/18 05:57:24;;;;;;;;;;;;;;;7.30;97.70;98949.13;5063389;28;19924;-80
2023/02/18 05:59:49;;;;;;;;;;;;;;;7.28;97.79;98945.88;5065973;28;19920;-79
2023/02/18 06:02:14;;;;;;;;;;;;;;;7.31;98.29;98941.97;5065461;28;20285;-78
2023/02/18 06:04:40;;;;;;;;;;;;;;;7.30;98.39;98938.50;5066087;28;20377;-78
2023/02/18 06:07:05;;;;;;;;;;;;;;;7.31;98.35;98940.13;5069097;28;20033;-78
2023/02/18 06:09:30;;;;;;;;;;;;;;;7.29;98.95;98944.03;5069689;28;19920;-79
2023/02/18 06:11:55;;;;;;;;;;;;;;;7.30;97.97;98932.38;5053858;28;19920;-81
2023/02/18 06:14:21;;;;;;;;;;;;;;;7.28;99.04;98932.59;5069228;28;19924;-77
2023/02/18 06:16:46;;;;;;;;;;;;;;;7.28;98.99;98924.63;5070797;28;19988;-77
2023/02/18 06:19:11;;;;;;;;;;;;;;;7.33;98.67;98935.41;5067938;28;20058;-75
2023/02/18 06:21:36;;;;;;;;;;;;;;;7.36;98.40;98937.59;5064399;28;20045;-76
2023/02/18 06:24:02;;;;;;;;;;;;;;;7.33;98.10;98924.78;5067221;28;19927;-77
2023/02/18 06:26:27;;;;;;;;;;;;;;;7.35;98.59;98935.16;5069697;28;20551;-78
2023/02/18 06:28:54;;;;;;;;;;;;;;;7.32;98.63;98924.97;5070547;28;19920;-77
2023/02/18 06:31:20;;;;;;;;;;;;;;;7.29;98.65;98917.50;5071714;28;19917;-76
2023/02/18 06:33:45;;;;;;;;;;;;;;;7.31;98.31;98920.72;5067692;28;19925;-77
2023/02/18 06:36:12;;;;;;;;;;;;;;;7.31;99.02;98920.72;5065471;28;20368;-77
2023/02/18 06:38:42;;;;;;;;;;;;;;;7.30;99.42;98919.91;5066989;28;19960;-77
2023/02/18 06:41:08;;;;;;;;;;;;;;;7.32;99.25;98915.19;5067109;28;19923;-77
2023/02/18 06:43:33;;;;;;;;;;;;;;;7.32;98.99;98909.88;5066064;28;20313;-77
2023/02/18 06:45:58;;;;;;;;;;;;;;;7.30;99.27;98905.81;5070223;28;19920;-76
2023/02/18 06:48:24;;;;;;;;;;;;;;;7.34;100.00;98907.81;5068478;28;19928;-76
2023/02/18 06:50:49;;;;;;;;;;;;;;;7.33;99.32;98908.84;5068097;28;20373;-76
2023/02/18 06:53:16;;;;;;;;;;;;;;;7.35;99.80;98909.44;5066646;28;19982;-77
2023/02/18 06:55:41;;;;;;;;;;;;;;;7.34;99.54;98889.22;5063904;28;20351;-77
2023/02/18 06:58:08;;;;;;;;;;;;;;;7.34;99.60;98889.22;5065231;28;19928;-77
2023/02/18 07:00:33;;;;;;;;;;;;;;;7.28;100.00;98897.28;5071066;28;19920;-76
2023/02/18 07:02:58;;;;;;;;;;;;;;;7.28;100.00;98886.66;5052096;28;19974;-76
2023/02/18 07:05:23;;;;;;;;;;;;;;;7.32;100.00;98887.81;5066966;28;19988;-76
2023/02/18 07:07:49;;;;;;;;;;;;;;;7.35;100.00;98882.06;5065026;28;19943;-76
2023/02/18 07:10:14;;;;;;;;;;;;;;;7.32;99.82;98878.00;5064240;28;19966;-76
2023/02/18 07:12:39;;;;;;;;;;;;;;;7.32;100.00;98879.84;5067389;28;19920;-76
2023/02/18 07:15:04;;;;;;;;;;;;;;;7.30;100.00;98864.16;5067265;28;20365;-76
2023/02/18 07:17:30;;;;;;;;;;;;;;;7.34;100.00;98860.00;5065594;28;20281;-77
2023/02/18 07:19:55;;;;;;;;;;;;;;;7.29;100.00;98846.63;5080745;28;19924;-76
2023/02/18 07:22:21;;;;;;;;;;;;;;;7.34;100.00;98846.72;5063661;28;19963;-76
2023/02/18 07:24:50;;;;;;;;;;;;;;;7.36;100.00;98849.97;5064359;28;19923;-76
2023/02/18 07:27:15;;;;;;;;;;;;;;;7.40;100.00;98851.13;5064895;28;19928;-77
2023/02/18 07:29:40;;;;;;;;;;;;;;;7.37;100.00;98848.94;5066616;28;19926;-78
2023/02/18 07:32:06;;;;;;;;;;;;;;;7.39;100.00;98852.19;5063530;28;20059;-77
2023/02/18 07:34:31;;;;;;;;;;;;;;;7.38;100.00;98850.56;5067327;28;19927;-77
2023/02/18 07:36:56;;;;;;;;;;;;;;;7.43;100.00;98840.06;5063349;28;19924;-77
2023/02/18 07:39:21;;;;;;;;;;;;;;;7.46;100.00;98846.78;5058582;28;19950;-77
2023/02/18 07:41:47;;;;;;;;;;;;;;;7.41;100.00;98842.16;5067533;28;19932;-75
2023/02/18 07:44:12;;;;;;;;;;;;;;;7.43;100.00;98845.38;5065803;28;19966;-75
2023/02/18 07:46:39;;;;;;;;;;;;;;;7.45;100.00;98848.59;5060561;28;20002;-77
2023/02/18 07:49:04;;;;;;;;;;;;;;;7.49;100.00;98846.31;5065175;28;19975;-77
2023/02/18 07:51:29;;;;;;;;;;;;;;;7.49;100.00;98836.50;5066473;28;20389;-76
2023/02/18 07:53:55;;;;;;;;;;;;;;;7.52;100.00;98836.03;5070834;28;19989;-75
2023/02/18 07:56:20;;;;;;;;;;;;;;;7.56;100.00;98831.06;5064487;28;19926;-76
2023/02/18 07:58:45;;;;;;;;;;;;;;;7.54;100.00;98822.53;5069251;28;19925;-74
2023/02/18 08:01:13;;;;;;;;;;;;;;;7.55;100.00;98824.97;5067331;28;19936;-75
2023/02/18 08:03:38;;;;;;;;;;;;;;;7.55;100.00;98824.97;5061472;28;19921;-76
2023/02/18 08:06:04;;;;;;;;;;;;;;;7.60;100.00;98831.44;5063737;28;19989;-76
2023/02/18 08:08:31;;;;;;;;;;;;;;;7.66;100.00;98833.16;5067117;28;20035;-77
2023/02/18 08:10:58;;;;;;;;;;;;;;;7.63;100.00;98826.47;5060039;28;19982;-76
2023/02/18 08:13:23;;;;;;;;;;;;;;;7.65;100.00;98820.91;5065995;28;20003;-76
2023/02/18 08:15:49;;;;;;;;;;;;;;;7.68;100.00;98823.13;5066192;28;20007;-80
2023/02/18 08:18:15;;;;;;;;;;;;;;;7.69;100.00;98835.38;5072410;28;19920;-79
2023/02/18 08:20:41;;;;;;;;;;;;;;;7.67;100.00;98827.63;5072823;28;19916;-79
2023/02/18 08:23:06;;;;;;;;;;;;;;;7.68;100.00;98823.94;5070745;28;19944;-79
2023/02/18 08:25:32;;;;;;;;;;;;;;;7.67;100.00;98827.63;5065719;28;20396;-78
2023/02/18 08:27:58;;;;;;;;;;;;;;;7.69;100.00;98817.56;5073496;28;20090;-78
2023/02/18 08:30:23;;;;;;;;;;;;;;;7.72;100.00;98824.28;5074436;28;20058;-78
2023/02/18 08:32:51;;;;;;;;;;;;;;;7.71;100.00;98820.81;5068321;28;20290;-78
2023/02/18 08:35:16;;;;;;;;;;;;;;;7.71;100.00;98820.81;5065687;28;19921;-78
2023/02/18 08:37:42;;;;;;;;;;;;;;;7.76;100.00;98822.78;5063740;28;19930;-77
2023/02/18 08:40:07;;;;;;;;;;;;;;;7.81;100.00;98825.56;5069128;28;20332;-76
2023/02/18 08:42:32;;;;;;;;;;;;;;;7.78;100.00;98812.72;5062458;28;21556;-74
2023/02/18 08:44:58;;;;;;;;;;;;;;;7.77;100.00;98814.59;5059695;28;19928;-75
2023/02/18 08:47:23;;;;;;;;;;;;;;;7.80;100.00;98813.31;5063669;28;19916;-75
2023/02/18 08:49:48;;;;;;;;;;;;;;;7.79;100.00;98804.53;5060129;28;19963;-75
2023/02/18 08:52:13;;;;;;;;;;;;;;;7.81;100.00;98817.59;5061080;28;19927;-76
2023/02/18 08:54:39;;;;;;;;;;;;;;;7.80;100.00;98803.47;5064610;28;20014;-75
2023/02/18 08:57:04;;;;;;;;;;;;;;;7.79;100.00;98807.19;5064611;28;19966;-75
2023/02/18 08:59:29;;;;;;;;;;;;;;;7.84;100.00;98806.50;5062818;28;19986;-75
2023/02/18 09:01:55;;;;;;;;;;;;;;;7.81;100.00;98802.47;5061836;28;19942;-77
2023/02/18 09:04:20;;;;;;;;;;;;;;;8.82;99.81;98792.06;5066638;28;20047;-80
2023/02/18 09:06:49;;;;;;;;;;;;;;;9.54;95.40;98789.56;5066098;28;19966;-79
2023/02/18 09:09:14;;;;;;;;;;;;;;;10.07;91.54;98784.47;5076558;28;19920;-79
2023/02/18 09:11:40;;;;;;;;;;;;;;;10.16;91.02;98788.38;5073283;28;20002;-78
2023/02/18 09:14:05;;;;;;;;;;;;;;;10.23;90.52;98801.53;5075421;28;19960;-78
2023/02/18 09:16:30;;;;;;;;;;;;;;;10.36;89.91;98791.28;5075664;28;20938;-78
2023/02/18 09:18:57;;;;;;;;;;;;;;;10.57;89.35;98802.22;5072172;28;20293;-77
2023/02/18 09:21:23;;;;;;;;;;;;;;;10.66;89.00;98790.06;5071424;28;19927;-78
2023/02/18 09:23:49;;;;;;;;;;;;;;;10.71;88.51;98792.75;5075460;28;19916;-79
2023/02/18 09:26:15;;;;;;;;;;;;;;;10.61;88.14;98782.78;5072859;28;19973;-81
2023/02/18 09:28:41;;;;;;;;;;;;;;;10.68;87.90;98788.72;5070110;28;19918;-78
2023/02/18 09:31:11;;;;;;;;;;;;;;;10.75;88.06;98772.50;5068653;28;19922;-77
2023/02/18 09:33:38;;;;;;;;;;;;;;;10.83;87.61;98769.41;5066358;28;19931;-77
2023/02/18 09:36:03;;;;;;;;;;;;;;;10.80;87.76;98765.38;5063050;28;19928;-79
2023/02/18 09:38:28;;;;;;;;;;;;;;;10.78;88.01;98767.50;5069080;28;19974;-77
2023/02/18 09:40:54;;;;;;;;;;;;;;;10.88;88.24;98772.09;5067055;28;19920;-75
2023/02/18 09:43:28;;;;;;;;;;;;;;;11.06;87.86;98769.09;5063212;28;19920;-75
2023/02/18 09:45:54;;;;;;;;;;;;;;;11.17;87.93;98773.47;5060457;28;19917;-78
2023/02/18 09:48:25;;;;;;;;;;;;;;;11.22;86.11;98776.19;5065905;28;20263;-76
2023/02/18 09:50:51;;;;;;;;;;;;;;;11.24;86.20;98766.06;5067639;28;20027;-77
2023/02/18 09:53:16;;;;;;;;;;;;;;;11.01;86.63;98764.50;5064031;28;20047;-78
2023/02/18 09:55:45;;;;;;;;;;;;;;;11.16;85.82;98778.00;5068943;28;19925;-79
2023/02/18 09:58:14;;;;;;;;;;;;;;;11.21;86.24;98769.22;5067212;28;19978;-78
2023/02/18 10:00:45;;;;;;;;;;;;;;;11.39;85.68;98779.53;5066951;28;19977;-77
2023/02/18 10:03:14;;;;;;;;;;;;;;;11.43;85.55;98777.97;5066623;28;20399;-76
2023/02/18 10:05:45;;;;;;;;;;;;;;;11.51;85.99;98788.16;5070542;28;19920;-80
2023/02/18 10:08:18;;;;;;;;;;;;;;;11.59;85.66;98785.03;5069452;28;19923;-79
2023/02/18 10:10:45;;;;;;;;;;;;;;;11.60;85.02;98770.59;5070171;28;19934;-81
2023/02/18 10:13:13;;;;;;;;;;;;;;;11.59;86.37;98754.81;5068642;28;19921;-78
2023/02/18 10:15:40;;;;;;;;;;;;;;;11.28;85.66;98761.81;5066357;28;19931;-79
2023/02/18 10:18:11;;;;;;;;;;;;;;;10.33;87.98;98775.78;5070447;28;19924;-79
2023/02/18 10:20:36;;;;;;;;;;;;;;;9.94;90.65;98755.50;5065922;28;20527;-79
2023/02/18 10:23:04;;;;;;;;;;;;;;;9.63;91.54;98756.94;5071562;28;19931;-78
2023/02/18 10:25:30;;;;;;;;;;;;;;;9.38;91.57;98743.25;5065385;28;19948;-77
2023/02/18 10:27:56;;;;;;;;;;;;;;;9.53;91.84;98754.13;5068722;28;19967;-77
2023/02/18 10:30:40;;;;;;;;;;;;;;;9.28;92.83;98759.06;5064681;28;19920;-78
2023/02/18 10:33:18;;;;;;;;;;;;;;;9.22;93.35;98741.38;5062834;28;19925;-77
2023/02/18 10:35:51;;;;;;;;;;;;;;;9.21;93.02;98730.97;5069323;28;19920;-77
2023/02/18 10:38:32;;;;;;;;;;;;;;;9.08;93.81;98726.78;5069255;28;19938;-77
2023/02/18 10:41:16;;;;;;;;;;;;;;;9.14;94.36;98735.66;5067424;28;19923;-77
2023/02/18 10:43:51;;;;;;;;;;;;;;;9.20;93.13;98729.34;5082146;28;20285;-77
2023/02/18 10:46:24;;;;;;;;;;;;;;;9.06;94.05;98723.56;5061597;28;19927;-77
2023/02/18 10:49:05;;;;;;;;;;;;;;;9.22;93.83;98719.28;5067523;28;19930;-78
2023/02/18 10:51:33;;;;;;;;;;;;;;;9.19;93.43;98717.91;5072370;28;19989;-78
2023/02/18 10:53:59;;;;;;;;;;;;;;;9.10;93.09;98723.88;5067702;28;19916;-78
2023/02/18 10:56:47;;;;;;;;;;;;;;;9.13;93.77;98721.53;5069080;28;20008;-78
2023/02/18 10:59:20;;;;;;;;;;;;;;;9.06;92.59;98721.69;5063206;28;19931;-78
2023/02/18 11:02:12;;;;;;;;;;;;;;;9.07;92.84;98733.97;5075980;28;19917;-80
2023/02/18 11:04:39;;;;;;;;;;;;;;;9.05;92.67;98729.91;5081366;28;19921;-78
2023/02/18 11:07:22;;;;;;;;;;;;;;;9.02;92.58;98706.47;5069009;28;19916;-81
2023/02/18 11:09:55;;;;;;;;;;;;;;;9.02;93.17;98728.53;5066326;28;19924;-81
2023/02/18 11:12:25;;;;;;;;;;;;;;;9.06;92.73;98740.31;5068204;28;19916;-80
2023/02/18 11:15:03;;;;;;;;;;;;;;;9.07;92.24;98747.28;5065916;28;20039;-81
2023/02/18 11:17:29;;;;;;;;;;;;;;;8.89;93.63;98750.13;5069695;28;20404;-80
2023/02/18 11:19:56;;;;;;;;;;;;;;;8.89;93.64;98744.81;5070191;28;19920;-79
2023/02/18 11:22:27;;;;;;;;;;;;;;;8.75;91.84;98750.69;5068837;28;20006;-81
2023/02/18 11:24:53;;;;;;;;;;;;;;;8.72;91.45;98724.53;5069496;28;19936;-81
2023/02/18 11:27:21;;;;;;;;;;;;;;;8.63;91.16;98741.94;5068170;28;20451;-81
2023/02/18 11:29:49;;;;;;;;;;;;;;;8.63;90.48;98736.63;5068874;28;20292;-78
2023/02/18 11:32:14;;;;;;;;;;;;;;;8.56;90.22;98752.72;5064054;28;19925;-78
2023/02/18 11:34:41;;;;;;;;;;;;;;;8.49;90.90;98749.41;5070940;28;19927;-80
2023/02/18 11:37:18;;;;;;;;;;;;;;;8.52;91.02;98751.59;5070984;28;19928;-80
2023/02/18 11:39:44;;;;;;;;;;;;;;;8.48;90.51;98763.75;5068878;28;20404;-81
2023/02/18 11:42:13;;;;;;;;;;;;;;;8.48;90.97;98760.28;5072390;28;19982;-80
2023/02/18 11:44:47;;;;;;;;;;;;;;;8.44;90.24;98754.63;5071311;28;20027;-80
2023/02/18 11:47:12;;;;;;;;;;;;;;;8.42;90.43;98763.88;5069696;28;19916;-79
2023/02/18 11:49:38;;;;;;;;;;;;;;;8.32;89.63;98762.63;5070542;28;19916;-77
2023/02/18 11:52:12;;;;;;;;;;;;;;;8.29;90.47;98751.69;5070197;28;19927;-78
2023/02/18 11:54:37;;;;;;;;;;;;;;;8.35;90.00;98745.41;5065172;28;19920;-77
2023/02/18 11:57:09;;;;;;;;;;;;;;;8.38;90.87;98744.94;5066909;28;19927;-78
2023/02/18 11:59:36;;;;;;;;;;;;;;;8.26;90.86;98744.16;5067578;28;19920;-78
2023/02/18 12:02:11;;;;;;;;;;;;;;;8.25;90.35;98737.22;5069303;28;20357;-80
2023/02/18 12:04:36;;;;;;;;;;;;;;;8.29;90.39;98741.84;5086082;28;19930;-78
2023/02/18 12:07:14;;;;;;;;;;;;;;;8.28;90.33;98745.53;5075899;28;20007;-80
2023/02/18 12:09:42;;;;;;;;;;;;;;;8.27;90.39;98743.94;5066641;28;19979;-79
2023/02/18 12:12:18;;;;;;;;;;;;;;;8.18;90.56;98750.63;5065672;28;20010;-79
2023/02/18 12:14:44;;;;;;;;;;;;;;;8.25;89.96;98756.66;5066786;28;20288;-77
2023/02/18 12:17:17;;;;;;;;;;;;;;;8.22;89.64;98750.97;5064291;28;19916;-80
2023/02/18 12:20:14;;;;;;;;;;;;;;;8.17;89.80;98769.47;5063071;28;19977;-79
2023/02/18 12:22:43;;;;;;;;;;;;;;;8.12;89.69;98756.91;5066944;28;19955;-78
2023/02/18 12:25:19;;;;;;;;;;;;;;;8.11;89.89;98747.28;5067960;28;19927;-77
2023/02/18 12:27:49;;;;;;;;;;;;;;;8.05;91.17;98747.44;5067254;28;19917;-79
2023/02/18 12:30:20;;;;;;;;;;;;;;;8.07;90.84;98756.78;5065838;28;20312;-79
2023/02/18 12:32:55;;;;;;;;;;;;;;;8.11;90.42;98746.47;5066987;28;19924;-80
2023/02/18 12:35:29;;;;;;;;;;;;;;;8.14;90.45;98744.19;5080284;28;19921;-80
2023/02/18 12:38:14;;;;;;;;;;;;;;;8.14;89.68;98752.16;5068921;28;19916;-81
2023/02/18 12:40:48;;;;;;;;;;;;;;;8.01;90.71;98747.09;5075363;28;19921;-80
2023/02/18 12:43:13;;;;;;;;;;;;;;;8.23;89.82;98747.28;5070266;28;19934;-79
2023/02/18 12:46:00;;;;;;;;;;;;;;;8.19;90.47;98762.09;5070126;28;20389;-77
2023/02/18 12:48:37;;;;;;;;;;;;;;;8.28;90.34;98750.03;5068082;28;19920;-78
2023/02/18 12:51:07;;;;;;;;;;;;;;;8.29;90.65;98757.00;5070264;28;19917;-78
2023/02/18 12:53:35;;;;;;;;;;;;;;;8.38;91.01;98752.09;5070156;28;19912;-77
2023/02/18 12:56:17;;;;;;;;;;;;;;;8.37;90.61;98745.16;5072058;28;20326;-77
2023/02/18 12:58:59;;;;;;;;;;;;;;;8.38;90.79;98744.94;5071037;28;19928;-79
2023/02/18 13:01:32;;;;;;;;;;;;;;;8.32;90.58;98753.88;5060978;28;19921;-78